Time;durP1;ratioP1;P1;durP2;ratioP2;P2;SDS_P1;SDS_P2;PMS_P1;PMS_P2;Temp;Humidity;BMP_temperature;BMP_pressure;BME280_temperature;BME280_humidity;BME280_pressure;Samples;Min_cycle;Max_cycle;Signal;HPM_P1;HPM_P2
2021/01/15 00:02:55;;;;;;;8.00;7.07;;;;;;;5.50;55.73;102272.66;6120546;28;20231;-69
2021/01/15 00:06:20;;;;;;;7.70;6.90;;;;;;;5.38;56.05;102276.53;6121005;28;20232;-68
2021/01/15 00:09:41;;;;;;;10.77;7.97;;;;;;;5.49;55.95;102282.97;6121949;28;20311;-68
2021/01/15 00:13:01;;;;;;;8.00;7.07;;;;;;;5.55;55.79;102278.03;6118855;28;20236;-68
2021/01/15 00:16:23;;;;;;;7.03;6.33;;;;;;;5.57;55.76;102278.94;6120296;28;20231;-68
2021/01/15 00:19:44;;;;;;;7.90;7.10;;;;;;;5.54;55.17;102276.25;6121374;28;20232;-69
2021/01/15 00:23:05;;;;;;;11.83;8.77;;;;;;;5.65;55.18;102274.91;6120626;28;20231;-69
2021/01/15 00:26:27;;;;;;;11.73;9.77;;;;;;;5.67;55.23;102272.38;6121792;28;20343;-69
2021/01/15 00:29:48;;;;;;;9.80;7.97;;;;;;;5.62;55.47;102276.50;6131764;28;20236;-69
2021/01/15 00:33:08;;;;;;;8.53;6.63;;;;;;;5.62;55.29;102269.66;6119596;28;20248;-69
2021/01/15 00:36:28;;;;;;;8.03;7.23;;;;;;;5.39;55.49;102262.78;6117341;28;20282;-68
2021/01/15 00:39:49;;;;;;;10.90;7.40;;;;;;;5.52;55.47;102252.06;6121825;28;20625;-69
2021/01/15 00:43:10;;;;;;;11.37;9.13;;;;;;;5.63;54.86;102253.31;6117117;28;20561;-69
2021/01/15 00:46:33;;;;;;;8.80;7.37;;;;;;;5.61;54.36;102252.38;6116891;28;20232;-70
2021/01/15 00:49:56;;;;;;;13.80;8.90;;;;;;;5.58;54.83;102249.69;6121619;28;20231;-69
2021/01/15 00:53:17;;;;;;;9.53;7.67;;;;;;;5.58;54.90;102261.72;6129355;28;20228;-68
2021/01/15 00:56:39;;;;;;;9.57;7.83;;;;;;;5.55;54.70;102257.34;6133751;28;20240;-68
2021/01/15 01:00:07;;;;;;;13.47;9.83;;;;;;;5.55;55.00;102257.34;6133698;28;20282;-69
2021/01/15 01:03:41;;;;;;;9.23;7.10;;;;;;;5.60;54.82;102260.06;6142763;28;20232;-68
2021/01/15 01:07:01;;;;;;;7.93;6.90;;;;;;;5.55;55.17;102261.66;6118597;28;20263;-68
2021/01/15 01:10:22;;;;;;;8.83;6.73;;;;;;;5.63;54.34;102271.41;6110901;28;20232;-68
2021/01/15 01:13:43;;;;;;;10.87;8.90;;;;;;;5.69;54.65;102270.75;6117472;28;20251;-68
2021/01/15 01:17:04;;;;;;;11.40;9.87;;;;;;;5.62;54.37;102279.09;6108721;28;20259;-68
2021/01/15 01:20:24;;;;;;;7.57;6.47;;;;;;;5.47;54.35;102282.03;6120470;28;20232;-68
2021/01/15 01:23:45;;;;;;;8.63;7.77;;;;;;;5.36;54.13;102281.66;6119580;28;20255;-68
2021/01/15 01:27:05;;;;;;;7.93;7.00;;;;;;;5.43;54.86;102287.91;6115713;28;20231;-69
2021/01/15 01:30:27;;;;;;;8.90;8.00;;;;;;;5.18;55.49;102286.16;6111978;28;20232;-69
2021/01/15 01:33:47;;;;;;;11.37;8.40;;;;;;;5.12;56.17;102287.69;6115626;28;20235;-68
2021/01/15 01:37:07;;;;;;;10.17;8.83;;;;;;;5.32;55.77;102293.56;6115136;28;22502;-68
2021/01/15 01:40:28;;;;;;;9.43;7.97;;;;;;;5.40;55.42;102293.84;6119534;28;20233;-68
2021/01/15 01:43:48;;;;;;;9.03;8.13;;;;;;;5.48;55.90;102296.72;6119951;28;20239;-69
2021/01/15 01:47:11;;;;;;;10.13;7.40;;;;;;;5.46;56.21;102295.78;6118329;28;20681;-69
2021/01/15 01:50:32;;;;;;;10.60;9.57;;;;;;;5.32;56.23;102306.50;6118690;28;20228;-68
2021/01/15 01:53:53;;;;;;;12.50;9.97;;;;;;;5.36;56.93;102304.03;6120113;28;20247;-68
2021/01/15 01:57:13;;;;;;;10.90;9.83;;;;;;;5.25;57.04;102299.38;6118976;28;20769;-68
2021/01/15 02:00:36;;;;;;;10.57;9.47;;;;;;;5.26;57.28;102301.09;6118846;28;20614;-69
2021/01/15 02:04:01;;;;;;;12.73;11.40;;;;;;;5.27;57.25;102300.31;6119838;28;20587;-69
2021/01/15 02:07:23;;;;;;;11.97;9.37;;;;;;;5.37;56.78;102303.19;6118347;28;20227;-69
2021/01/15 02:10:49;;;;;;;12.23;10.13;;;;;;;5.38;57.14;102304.97;6121232;28;20311;-68
2021/01/15 02:14:19;;;;;;;10.83;9.73;;;;;;;5.29;57.22;102301.22;6123975;28;20227;-69
2021/01/15 02:17:47;;;;;;;12.00;10.50;;;;;;;5.40;57.20;102305.91;6122313;28;20235;-69
2021/01/15 02:21:49;;;;;;;10.40;9.27;;;;;;;5.41;56.85;102311.13;6123610;28;20238;-68
2021/01/15 02:26:06;;;;;;;12.83;10.93;;;;;;;5.42;57.08;102302.53;6113146;28;20236;-68
2021/01/15 02:29:30;;;;;;;15.10;11.27;;;;;;;5.42;57.39;102305.13;6124613;28;20235;-69
2021/01/15 02:32:59;;;;;;;17.67;13.17;;;;;;;5.41;57.45;102305.06;6120798;28;20694;-69
2021/01/15 02:36:32;;;;;;;16.10;12.07;;;;;;;5.54;57.16;102302.09;6124238;28;20227;-69
2021/01/15 02:40:02;;;;;;;12.90;11.33;;;;;;;5.49;56.99;102294.19;6135414;28;20263;-69
2021/01/15 02:43:24;;;;;;;13.23;10.90;;;;;;;5.58;56.99;102308.25;6120625;28;20585;-69
2021/01/15 02:46:53;;;;;;;11.67;10.47;;;;;;;5.53;57.24;102308.09;6122030;28;20255;-69
2021/01/15 02:50:15;;;;;;;12.47;10.30;;;;;;;5.47;57.17;102318.22;6122586;28;20231;-68
2021/01/15 02:53:38;;;;;;;11.60;10.10;;;;;;;5.37;57.80;102313.53;6123655;28;20236;-68
2021/01/15 02:56:58;;;;;;;12.83;9.63;;;;;;;5.37;57.76;102323.84;6123092;28;20232;-68
2021/01/15 03:00:21;;;;;;;11.27;10.17;;;;;;;5.36;58.02;102316.94;6122076;28;20235;-69
2021/01/15 03:03:49;;;;;;;13.53;12.17;;;;;;;5.33;58.28;102318.59;6121586;28;20228;-69
2021/01/15 03:07:12;;;;;;;11.77;10.27;;;;;;;5.37;57.97;102323.84;6122639;28;20236;-69
2021/01/15 03:10:34;;;;;;;9.90;8.90;;;;;;;5.37;57.49;102329.03;6123539;28;20240;-68
2021/01/15 03:13:56;;;;;;;12.70;9.53;;;;;;;5.33;57.56;102328.94;6122788;28;20220;-69
2021/01/15 03:17:22;;;;;;;12.33;11.13;;;;;;;5.30;58.01;102333.97;6121807;28;20232;-69
2021/01/15 03:20:43;;;;;;;9.03;8.07;;;;;;;5.24;57.53;102346.66;6123604;28;20256;-68
2021/01/15 03:24:07;;;;;;;11.50;10.10;;;;;;;5.28;57.62;102337.34;6118676;28;20232;-68
2021/01/15 03:27:43;;;;;;;14.53;11.47;;;;;;;5.31;57.50;102340.00;6118294;28;20516;-69
2021/01/15 03:31:04;;;;;;;10.17;9.07;;;;;;;5.42;57.19;102350.75;6117019;28;20231;-68
2021/01/15 03:34:24;;;;;;;13.10;9.40;;;;;;;5.49;56.68;102345.00;6135348;28;20272;-69
2021/01/15 03:37:45;;;;;;;10.87;9.70;;;;;;;5.43;56.67;102349.91;6118525;28;20235;-69
2021/01/15 03:41:06;;;;;;;9.63;8.63;;;;;;;5.46;57.10;102350.03;6119730;28;20272;-69
2021/01/15 03:44:27;;;;;;;11.77;8.73;;;;;;;5.42;57.30;102343.88;6113926;28;20232;-69
2021/01/15 03:47:47;;;;;;;10.57;8.63;;;;;;;5.44;56.77;102351.69;6146090;28;20244;-68
2021/01/15 03:51:07;;;;;;;13.37;10.23;;;;;;;5.42;56.78;102353.34;6114744;28;20236;-68
2021/01/15 03:54:28;;;;;;;11.10;8.20;;;;;;;5.49;56.48;102355.34;6120590;28;20272;-69
2021/01/15 03:57:49;;;;;;;11.37;8.60;;;;;;;5.32;57.23;102353.00;6121000;28;20278;-69
2021/01/15 04:01:09;;;;;;;8.80;7.67;;;;;;;5.23;56.88;102349.19;6110184;28;20244;-68
2021/01/15 04:04:31;;;;;;;10.17;8.17;;;;;;;5.14;57.00;102336.81;6119628;28;20224;-69
2021/01/15 04:07:52;;;;;;;8.50;7.30;;;;;;;5.22;57.05;102350.91;6121143;28;20322;-69
2021/01/15 04:11:12;;;;;;;9.23;8.07;;;;;;;5.36;56.22;102355.69;6121139;28;20239;-69
2021/01/15 04:14:33;;;;;;;8.90;7.63;;;;;;;5.32;56.35;102354.72;6119647;28;20248;-69
2021/01/15 04:17:54;;;;;;;9.47;8.13;;;;;;;5.23;56.36;102357.81;6121927;28;20793;-69
2021/01/15 04:21:15;;;;;;;8.27;7.27;;;;;;;5.29;55.76;102354.56;6117202;28;20247;-69
2021/01/15 04:24:36;;;;;;;8.63;6.63;;;;;;;5.20;55.97;102346.50;6120240;28;20223;-69
2021/01/15 04:27:56;;;;;;;8.30;6.20;;;;;;;5.35;56.19;102344.50;6116175;28;20231;-69
2021/01/15 04:31:18;;;;;;;9.27;6.90;;;;;;;5.30;55.62;102346.88;6116330;28;20228;-69
2021/01/15 04:34:38;;;;;;;7.23;6.53;;;;;;;5.17;56.60;102344.66;6120592;28;20306;-69
2021/01/15 04:37:58;;;;;;;7.97;7.17;;;;;;;5.29;56.06;102349.41;6111531;28;20240;-69
2021/01/15 04:41:22;;;;;;;9.07;7.53;;;;;;;5.29;55.77;102347.72;6121457;28;20248;-69
2021/01/15 04:44:45;;;;;;;7.00;6.27;;;;;;;5.12;56.65;102344.50;6121890;28;20737;-69
2021/01/15 04:48:15;;;;;;;9.43;7.97;;;;;;;5.09;56.66;102349.53;6117090;28;20240;-68
2021/01/15 04:51:37;;;;;;;8.80;6.77;;;;;;;5.02;56.61;102354.41;6119953;28;20231;-68
2021/01/15 04:54:59;;;;;;;9.10;6.73;;;;;;;5.04;56.26;102356.25;6114211;28;20322;-69
2021/01/15 04:58:21;;;;;;;8.00;7.30;;;;;;;5.11;56.42;102347.03;6114499;28;20228;-68
2021/01/15 05:01:42;;;;;;;6.77;6.07;;;;;;;5.12;56.04;102364.31;6115097;28;20597;-70
2021/01/15 05:05:13;;;;;;;11.83;7.83;;;;;;;5.13;55.83;102366.03;6115423;28;20319;-69
2021/01/15 05:08:36;;;;;;;7.10;6.40;;;;;;;5.13;55.87;102366.03;6117500;28;20227;-69
2021/01/15 05:12:06;;;;;;;9.87;7.47;;;;;;;5.14;56.01;102367.81;6120341;28;20235;-69
2021/01/15 05:15:27;;;;;;;10.87;7.50;;;;;;;5.08;56.09;102372.75;6118380;28;20223;-68
2021/01/15 05:18:50;;;;;;;9.40;7.50;;;;;;;5.11;55.97;102363.41;6120931;28;20232;-69
2021/01/15 05:22:14;;;;;;;12.70;7.87;;;;;;;5.12;55.88;102366.88;6120044;28;20236;-69
2021/01/15 05:25:36;;;;;;;7.93;7.13;;;;;;;4.97;56.58;102377.50;6115152;28;20243;-68
2021/01/15 05:28:56;;;;;;;9.67;7.97;;;;;;;4.96;55.58;102382.59;6120238;28;20232;-69
2021/01/15 05:32:29;;;;;;;10.03;7.63;;;;;;;4.89;55.44;102384.94;6119016;28;20808;-69
2021/01/15 05:35:52;;;;;;;12.77;10.57;;;;;;;4.73;56.43;102401.53;6121923;28;20613;-69
2021/01/15 05:39:18;;;;;;;19.73;17.67;;;;;;;4.82;55.75;102392.38;6119790;28;20244;-69
2021/01/15 05:42:50;;;;;;;11.33;10.23;;;;;;;4.70;56.14;102395.34;6116160;28;20244;-68
2021/01/15 05:46:14;;;;;;;9.50;7.93;;;;;;;4.77;55.87;102389.63;6113534;28;20263;-69
2021/01/15 05:49:34;;;;;;;10.00;8.27;;;;;;;4.49;56.14;102398.81;6118777;28;20537;-69
2021/01/15 05:52:57;;;;;;;8.73;7.70;;;;;;;4.71;55.85;102402.25;6117155;28;20236;-69
2021/01/15 05:56:19;;;;;;;8.80;7.40;;;;;;;4.77;55.78;102397.38;6115436;28;20622;-69
2021/01/15 05:59:39;;;;;;;9.40;8.50;;;;;;;4.85;55.87;102401.13;6127206;28;20232;-70
2021/01/15 06:03:06;;;;;;;10.47;8.67;;;;;;;4.99;55.13;102398.22;6116710;28;20235;-69
2021/01/15 06:06:31;;;;;;;13.77;8.77;;;;;;;4.76;54.92;102418.81;6118774;28;20236;-69
2021/01/15 06:10:00;;;;;;;9.40;8.27;;;;;;;4.79;55.32;102416.38;6120150;28;20318;-69
2021/01/15 06:13:38;;;;;;;10.20;9.13;;;;;;;4.71;54.84;102417.75;6144837;28;20255;-69
2021/01/15 06:17:03;;;;;;;9.80;8.73;;;;;;;4.69;54.81;102412.53;6117151;28;20235;-69
2021/01/15 06:20:24;;;;;;;10.83;9.57;;;;;;;4.95;54.37;102406.66;6117627;28;20231;-68
2021/01/15 06:23:45;;;;;;;14.37;9.60;;;;;;;4.89;54.20;102421.09;6131540;28;20609;-69
2021/01/15 06:27:06;;;;;;;9.57;7.83;;;;;;;4.85;54.08;102424.38;6111118;28;20224;-69
2021/01/15 06:30:29;;;;;;;10.10;9.00;;;;;;;4.96;54.58;102411.84;6110659;28;20346;-66
2021/01/15 06:34:00;;;;;;;11.07;9.83;;;;;;;4.71;54.67;102425.47;6108811;28;20240;-66
2021/01/15 06:37:21;;;;;;;9.77;8.17;;;;;;;4.72;55.47;102425.56;6113016;28;20232;-66
2021/01/15 06:40:43;;;;;;;12.53;9.47;;;;;;;4.80;55.10;102422.41;6112204;28;20566;-68
2021/01/15 06:44:08;;;;;;;13.37;10.43;;;;;;;4.96;54.88;102423.91;6107413;28;20239;-66
2021/01/15 06:47:39;;;;;;;14.00;11.43;;;;;;;4.97;54.60;102436.00;6111078;28;20244;-68
2021/01/15 06:51:01;;;;;;;11.10;9.53;;;;;;;4.91;54.31;102441.81;6109435;28;20247;-70
2021/01/15 06:54:27;;;;;;;10.80;9.67;;;;;;;4.75;54.74;102440.31;6114723;28;20519;-73
2021/01/15 06:57:49;;;;;;;11.33;9.20;;;;;;;4.93;54.95;102445.31;6120069;28;20232;-71
2021/01/15 07:01:20;;;;;;;11.30;9.07;;;;;;;4.66;54.99;102445.97;6143559;28;20611;-68
2021/01/15 07:05:03;;;;;;;10.53;8.67;;;;;;;4.78;55.27;102447.28;6112521;28;22570;-65
2021/01/15 07:08:24;;;;;;;11.23;9.40;;;;;;;4.76;54.61;102452.38;6117550;28;20673;-68
2021/01/15 07:11:44;;;;;;;10.03;8.53;;;;;;;4.52;55.08;102447.97;6119959;28;20228;-67
2021/01/15 07:15:12;;;;;;;10.97;9.77;;;;;;;4.40;54.63;102449.13;6117543;28;20565;-69
2021/01/15 07:18:34;;;;;;;11.73;10.27;;;;;;;4.65;56.04;102443.31;6122665;28;20230;-69
2021/01/15 07:22:22;;;;;;;11.70;9.97;;;;;;;4.78;54.98;102453.31;6121129;28;20252;-69
2021/01/15 07:25:48;;;;;;;11.20;10.00;;;;;;;4.64;54.15;102460.50;6116165;28;20236;-66
2021/01/15 07:29:10;;;;;;;10.53;9.10;;;;;;;4.45;54.49;102463.13;6119749;28;20503;-68
2021/01/15 07:32:34;;;;;;;13.90;9.30;;;;;;;4.49;54.69;102457.28;6109797;28;20633;-65
2021/01/15 07:35:55;;;;;;;11.43;10.23;;;;;;;4.43;54.62;102464.75;6120265;28;21015;-65
2021/01/15 07:39:17;;;;;;;10.57;9.47;;;;;;;4.61;54.57;102473.25;6114925;28;20555;-66
2021/01/15 07:42:57;;;;;;;10.83;9.73;;;;;;;4.27;54.28;102479.56;6112844;28;20227;-67
2021/01/15 07:46:46;;;;;;;13.53;11.37;;;;;;;4.18;54.44;102486.03;6114580;28;20255;-68
2021/01/15 07:50:07;;;;;;;13.33;11.93;;;;;;;4.13;53.61;102484.13;6116234;28;20223;-68
2021/01/15 07:53:40;;;;;;;11.53;10.30;;;;;;;4.04;54.53;102496.63;6120408;28;20244;-68
2021/01/15 07:57:11;;;;;;;10.70;9.60;;;;;;;4.00;54.16;102499.00;6115970;28;20251;-67
2021/01/15 08:00:33;;;;;;;11.13;9.13;;;;;;;3.98;54.17;102495.47;6117327;28;20236;-67
2021/01/15 08:03:56;;;;;;;13.77;9.67;;;;;;;4.43;55.25;102504.34;6117090;28;20231;-67
2021/01/15 08:07:24;;;;;;;12.07;9.53;;;;;;;4.50;54.13;102501.22;6120283;28;20255;-68
2021/01/15 08:10:48;;;;;;;14.20;12.23;;;;;;;4.37;53.80;102504.06;6122332;28;20231;-67
2021/01/15 08:14:17;;;;;;;17.63;15.77;;;;;;;4.40;53.86;102504.22;6113516;28;20231;-65
2021/01/15 08:17:38;;;;;;;10.20;9.20;;;;;;;4.21;53.79;102506.81;6119680;28;20775;-68
2021/01/15 08:20:59;;;;;;;13.30;11.43;;;;;;;4.25;54.30;102509.59;6116106;28;20239;-69
2021/01/15 08:24:22;;;;;;;13.50;12.10;;;;;;;4.10;55.09;102509.78;6117190;28;20262;-68
2021/01/15 08:27:45;;;;;;;11.83;10.70;;;;;;;4.17;55.33;102515.19;6112602;28;20244;-68
2021/01/15 08:31:07;;;;;;;12.77;10.23;;;;;;;4.27;55.05;102517.41;6112062;28;20271;-67
2021/01/15 08:34:31;;;;;;;14.13;11.37;;;;;;;4.42;54.82;102502.59;6118106;28;20267;-66
2021/01/15 08:37:57;;;;;;;14.40;12.07;;;;;;;4.27;55.51;102514.81;6119909;28;20239;-68
2021/01/15 08:41:23;;;;;;;12.80;10.60;;;;;;;4.45;55.11;102510.44;6118951;28;20271;-69
2021/01/15 08:44:47;;;;;;;12.53;11.23;;;;;;;4.12;55.42;102512.44;6114603;28;20232;-68
2021/01/15 08:48:11;;;;;;;14.07;11.67;;;;;;;3.88;55.59;102517.38;6112088;28;20236;-69
2021/01/15 08:51:34;;;;;;;12.23;10.93;;;;;;;3.79;56.21;102522.97;6114753;28;20236;-71
2021/01/15 08:54:55;;;;;;;14.40;11.47;;;;;;;3.69;57.14;102526.81;6128479;28;20542;-68
2021/01/15 08:58:16;;;;;;;13.03;10.67;;;;;;;3.66;56.01;102536.09;6118093;28;20227;-68
2021/01/15 09:01:38;;;;;;;14.00;11.50;;;;;;;3.95;55.86;102537.44;6119828;28;21332;-69
2021/01/15 09:05:03;;;;;;;13.73;11.57;;;;;;;4.10;55.71;102542.41;6114421;28;20243;-70
2021/01/15 09:08:24;;;;;;;14.47;12.47;;;;;;;3.96;55.38;102540.94;6112272;28;20236;-71
2021/01/15 09:11:45;;;;;;;13.27;11.97;;;;;;;3.92;55.70;102545.06;6110479;28;20241;-69
2021/01/15 09:15:07;;;;;;;13.57;11.93;;;;;;;3.94;55.57;102543.44;6112291;28;20232;-69
2021/01/15 09:18:28;;;;;;;11.87;10.60;;;;;;;3.80;55.92;102553.09;6130517;28;20696;-69
2021/01/15 09:21:51;;;;;;;11.97;10.67;;;;;;;3.93;55.72;102552.84;6108840;28;20236;-69
2021/01/15 09:25:13;;;;;;;12.93;11.63;;;;;;;4.14;55.06;102557.22;6114710;28;20347;-69
2021/01/15 09:28:34;;;;;;;14.33;12.63;;;;;;;4.33;54.81;102561.50;6112796;28;20244;-67
2021/01/15 09:31:55;;;;;;;16.93;12.70;;;;;;;4.16;54.78;102565.03;6112845;28;20613;-67
2021/01/15 09:35:17;;;;;;;13.67;12.23;;;;;;;4.22;54.54;102567.88;6115174;28;20227;-66
2021/01/15 09:38:39;;;;;;;13.33;11.43;;;;;;;4.19;54.54;102565.16;6118348;28;20239;-66
2021/01/15 09:42:00;;;;;;;15.07;12.67;;;;;;;4.16;54.38;102570.19;6112696;28;20236;-66
2021/01/15 09:45:20;;;;;;;15.63;12.33;;;;;;;4.16;54.25;102578.78;6111996;28;20231;-70
2021/01/15 09:48:40;;;;;;;12.03;10.20;;;;;;;4.14;54.30;102578.72;6117654;28;20243;-66
2021/01/15 09:52:02;;;;;;;14.70;11.23;;;;;;;4.01;54.65;102575.50;6116246;28;20247;-66
2021/01/15 09:55:23;;;;;;;27.73;24.73;;;;;;;4.15;54.20;102584.78;6115970;28;20223;-68
2021/01/15 09:58:45;;;;;;;11.97;10.57;;;;;;;3.99;54.53;102580.59;6114493;28;20227;-69
2021/01/15 10:02:05;;;;;;;15.33;11.87;;;;;;;4.02;54.65;102593.63;6109908;28;20606;-70
2021/01/15 10:05:25;;;;;;;12.93;11.07;;;;;;;4.04;54.86;102592.00;6119652;28;20338;-69
2021/01/15 10:08:47;;;;;;;12.77;10.73;;;;;;;4.07;54.82;102602.47;6118457;28;20224;-69
2021/01/15 10:12:12;;;;;;;12.77;11.13;;;;;;;4.01;54.59;102601.28;6114753;28;20559;-71
2021/01/15 10:15:32;;;;;;;13.10;11.57;;;;;;;3.97;54.78;102602.84;6114085;28;20247;-69
2021/01/15 10:18:55;;;;;;;13.47;11.23;;;;;;;3.97;54.87;102604.53;6117093;28;20239;-65
2021/01/15 10:22:15;;;;;;;13.57;11.33;;;;;;;3.97;54.54;102605.41;6118066;28;20900;-68
2021/01/15 10:25:36;;;;;;;12.63;10.30;;;;;;;3.94;55.12;102602.72;6116296;28;20239;-68
2021/01/15 10:29:02;;;;;;;13.83;11.23;;;;;;;3.75;54.92;102613.84;6115601;28;20240;-66
2021/01/15 10:32:22;;;;;;;11.83;10.23;;;;;;;3.77;54.70;102613.94;6115547;28;20232;-69
2021/01/15 10:35:43;;;;;;;12.27;10.83;;;;;;;3.81;54.88;102608.97;6121454;28;20575;-68
2021/01/15 10:39:03;;;;;;;12.20;10.97;;;;;;;3.75;54.69;102614.72;6122032;28;20225;-67
2021/01/15 10:42:27;;;;;;;11.93;10.60;;;;;;;3.87;54.66;102608.38;6120627;28;20232;-74
2021/01/15 10:45:48;;;;;;;11.60;10.17;;;;;;;4.04;54.33;102607.47;6119670;28;20228;-67
2021/01/15 10:49:10;;;;;;;11.83;9.33;;;;;;;3.91;53.56;102607.72;6114977;28;20231;-68
2021/01/15 10:52:30;;;;;;;10.87;9.80;;;;;;;4.06;54.15;102607.56;6112456;28;20231;-68
2021/01/15 10:55:51;;;;;;;10.47;9.37;;;;;;;4.08;54.14;102611.09;6116639;28;20232;-66
2021/01/15 10:59:13;;;;;;;12.23;9.60;;;;;;;4.07;53.93;102605.06;6129447;28;20504;-65
2021/01/15 11:02:34;;;;;;;12.20;10.90;;;;;;;4.06;54.31;102603.28;6120201;28;20235;-64
2021/01/15 11:05:54;;;;;;;11.40;9.13;;;;;;;4.13;53.54;102605.34;6122690;28;20227;-64
2021/01/15 11:09:19;;;;;;;13.27;10.23;;;;;;;4.14;54.13;102608.78;6120754;28;20625;-65
2021/01/15 11:12:40;;;;;;;9.97;8.90;;;;;;;3.82;54.10;102610.75;6121388;28;20232;-69
2021/01/15 11:16:00;;;;;;;10.67;9.40;;;;;;;3.80;54.58;102606.31;6131805;28;20228;-69
2021/01/15 11:19:21;;;;;;;16.60;14.97;;;;;;;3.89;54.13;102596.44;6121065;28;20235;-66
2021/01/15 11:22:44;;;;;;;17.03;13.97;;;;;;;3.85;53.94;102604.84;6121203;28;20626;-67
2021/01/15 11:26:04;;;;;;;10.47;9.30;;;;;;;3.88;54.08;102605.00;6133818;28;20235;-68
2021/01/15 11:29:25;;;;;;;10.83;8.80;;;;;;;3.79;53.79;102607.16;6121941;28;20236;-66
2021/01/15 11:32:45;;;;;;;12.00;10.13;;;;;;;3.82;53.97;102602.13;6120205;28;20490;-65
2021/01/15 11:36:10;;;;;;;11.23;10.03;;;;;;;3.87;54.41;102605.81;6119734;28;20820;-68
2021/01/15 11:39:31;;;;;;;11.47;10.27;;;;;;;3.66;54.76;102603.97;6116622;28;20232;-67
2021/01/15 11:42:56;;;;;;;13.97;9.30;;;;;;;3.70;54.23;102605.91;6113995;28;20239;-68
2021/01/15 11:46:16;;;;;;;10.17;9.03;;;;;;;3.81;53.82;102602.94;6118978;28;20235;-66
2021/01/15 11:49:37;;;;;;;11.10;8.87;;;;;;;3.85;54.28;102610.00;6117853;28;20240;-68
2021/01/15 11:52:59;;;;;;;10.23;8.50;;;;;;;3.87;53.63;102609.25;6119696;29;20231;-67
2021/01/15 11:56:20;;;;;;;8.73;7.83;;;;;;;3.75;54.12;102614.72;6120131;28;20326;-67
2021/01/15 11:59:40;;;;;;;14.07;10.83;;;;;;;3.89;54.68;102614.50;6118657;28;20622;-68
2021/01/15 12:03:02;;;;;;;10.33;8.13;;;;;;;3.96;53.76;102607.94;6115650;28;20231;-68
2021/01/15 12:06:22;;;;;;;10.57;9.33;;;;;;;4.03;53.99;102594.50;6124567;28;20331;-66
2021/01/15 12:09:44;;;;;;;9.07;8.17;;;;;;;3.83;53.83;102606.47;6111375;28;20324;-70
2021/01/15 12:13:04;;;;;;;8.30;7.40;;;;;;;3.82;53.04;102599.53;6131676;28;20231;-71
2021/01/15 12:16:25;;;;;;;8.43;7.50;;;;;;;3.88;53.58;102600.72;6111663;28;20231;-69
2021/01/15 12:19:45;;;;;;;8.63;7.07;;;;;;;4.04;53.19;102597.16;6115001;28;20263;-68
2021/01/15 12:23:06;;;;;;;9.03;7.97;;;;;;;3.94;52.96;102600.16;6120677;28;20263;-70
2021/01/15 12:26:27;;;;;;;9.07;7.93;;;;;;;3.70;53.33;102603.34;6116914;28;20234;-67
2021/01/15 12:29:48;;;;;;;9.63;7.40;;;;;;;3.81;53.12;102601.25;6120519;28;20310;-69
2021/01/15 12:33:10;;;;;;;15.80;7.37;;;;;;;3.77;52.74;102603.63;6114442;28;20240;-67
2021/01/15 12:36:31;;;;;;;7.87;7.07;;;;;;;3.79;51.78;102599.41;6115638;28;20839;-70
2021/01/15 12:39:51;;;;;;;8.07;6.23;;;;;;;3.96;52.08;102593.34;6110266;28;20236;-68
2021/01/15 12:43:13;;;;;;;24.67;9.10;;;;;;;3.93;52.50;102613.81;6115096;28;20251;-67
2021/01/15 12:46:34;;;;;;;10.07;7.87;;;;;;;3.69;52.78;102609.28;6119854;28;20251;-67
2021/01/15 12:49:54;;;;;;;9.33;8.30;;;;;;;3.65;52.32;102607.38;6127472;28;20227;-67
2021/01/15 12:53:15;;;;;;;10.13;7.63;;;;;;;3.70;52.62;102608.50;6123302;28;20244;-65
2021/01/15 12:56:36;;;;;;;7.60;6.90;;;;;;;3.79;51.91;102604.56;6119336;28;20614;-63
2021/01/15 12:59:57;;;;;;;8.03;6.03;;;;;;;3.86;52.64;102602.34;6114425;28;20235;-66
2021/01/15 13:03:19;;;;;;;7.90;5.93;;;;;;;4.01;52.48;102607.31;6113251;28;20239;-66
2021/01/15 13:06:40;;;;;;;9.93;6.73;;;;;;;4.04;51.86;102607.47;6116467;28;20350;-69
2021/01/15 13:10:01;;;;;;;6.20;5.60;;;;;;;4.01;50.92;102616.75;6113305;28;20537;-69
2021/01/15 13:13:21;;;;;;;7.07;5.60;;;;;;;4.17;50.92;102616.69;6117510;28;21034;-70
2021/01/15 13:16:42;;;;;;;7.90;6.27;;;;;;;4.25;50.76;102617.03;6117592;28;20599;-70
2021/01/15 13:20:04;;;;;;;6.87;6.27;;;;;;;3.99;50.60;102611.53;6119151;28;20235;-69
2021/01/15 13:23:25;;;;;;;7.13;6.17;;;;;;;3.96;50.29;102619.13;6112246;28;20240;-71
2021/01/15 13:26:47;;;;;;;9.03;7.10;;;;;;;4.12;51.03;102619.03;6118615;28;20246;-68
2021/01/15 13:30:08;;;;;;;6.87;5.97;;;;;;;3.99;50.82;102621.84;6114229;28;20660;-68
2021/01/15 13:33:32;;;;;;;8.17;5.93;;;;;;;3.86;51.26;102627.25;6109670;28;20239;-66
2021/01/15 13:36:56;;;;;;;7.57;5.40;;;;;;;3.78;51.26;102628.56;6110104;28;20623;-70
2021/01/15 13:40:16;;;;;;;6.23;5.57;;;;;;;3.77;50.86;102634.53;6112133;28;20503;-71
2021/01/15 13:43:37;;;;;;;6.37;5.33;;;;;;;3.42;52.15;102641.44;6115476;28;20251;-68
2021/01/15 13:46:57;;;;;;;8.23;6.30;;;;;;;3.45;51.43;102627.03;6111227;28;20228;-71
2021/01/15 13:50:21;;;;;;;7.13;6.13;;;;;;;3.53;51.82;102628.28;6111377;28;20243;-67
2021/01/15 13:53:41;;;;;;;6.37;5.47;;;;;;;3.72;52.04;102637.78;6111259;28;20665;-67
2021/01/15 13:57:01;;;;;;;7.40;5.87;;;;;;;3.90;51.56;102639.47;6110706;28;20248;-68
2021/01/15 14:00:22;;;;;;;7.63;5.63;;;;;;;4.04;51.11;102642.69;6112929;28;20240;-67
2021/01/15 14:03:43;;;;;;;8.83;6.33;;;;;;;3.92;51.17;102643.00;6111948;28;20252;-67
2021/01/15 14:07:05;;;;;;;7.13;5.60;;;;;;;3.83;50.87;102642.56;6120365;28;20260;-67
2021/01/15 14:10:25;;;;;;;5.37;4.17;;;;;;;4.01;50.43;102652.84;6122288;28;20230;-68
2021/01/15 14:13:45;;;;;;;4.37;3.50;;;;;;;3.82;50.36;102651.09;6110357;28;20227;-67
2021/01/15 14:17:06;;;;;;;4.60;4.20;;;;;;;3.89;49.40;102648.00;6124998;28;20235;-67
2021/01/15 14:20:26;;;;;;;3.70;3.33;;;;;;;3.73;50.57;102655.00;6132429;28;20231;-68
2021/01/15 14:23:48;;;;;;;5.80;4.30;;;;;;;3.78;50.11;102651.75;6138083;28;20327;-67
2021/01/15 14:27:08;;;;;;;4.33;3.60;;;;;;;3.99;49.86;102655.34;6134244;28;20235;-67
2021/01/15 14:30:29;;;;;;;4.23;3.07;;;;;;;3.92;48.99;102663.63;6139743;28;20243;-67
2021/01/15 14:33:49;;;;;;;6.07;4.43;;;;;;;3.90;49.17;102657.53;6121653;28;20546;-66
2021/01/15 14:37:13;;;;;;;16.07;14.00;;;;;;;3.94;49.31;102668.03;6121417;28;20239;-66
2021/01/15 14:40:34;;;;;;;5.77;4.70;;;;;;;3.83;48.82;102669.22;6119903;28;20517;-67
2021/01/15 14:43:55;;;;;;;10.77;8.70;;;;;;;3.98;47.83;102676.81;6130007;28;20354;-67
2021/01/15 14:47:15;;;;;;;11.63;9.37;;;;;;;3.98;48.61;102673.34;6121946;28;20243;-67
2021/01/15 14:50:36;;;;;;;21.13;16.30;;;;;;;4.08;48.29;102676.44;6121720;28;20243;-67
2021/01/15 14:53:57;;;;;;;10.23;7.47;;;;;;;4.12;47.60;102677.47;6123861;28;20524;-68
2021/01/15 14:57:18;;;;;;;19.33;13.47;;;;;;;4.14;48.37;102676.72;6120509;28;20236;-67
2021/01/15 15:00:39;;;;;;;9.53;7.73;;;;;;;3.98;47.02;102688.81;6121578;28;20236;-67
2021/01/15 15:03:59;;;;;;;10.43;8.50;;;;;;;3.95;47.96;102697.28;6120395;28;20239;-67
2021/01/15 15:07:20;;;;;;;4.80;4.30;;;;;;;3.53;46.93;102694.38;6115597;28;20255;-67
2021/01/15 15:10:40;;;;;;;3.67;2.70;;;;;;;3.42;47.03;102695.53;6126144;28;20236;-68
2021/01/15 15:14:04;;;;;;;10.33;6.50;;;;;;;3.70;47.14;102706.41;6121496;28;20232;-67
2021/01/15 15:17:24;;;;;;;3.60;3.30;;;;;;;3.60;46.14;102714.47;6135242;28;20313;-67
2021/01/15 15:20:44;;;;;;;4.97;4.40;;;;;;;3.54;46.23;102714.16;6146278;28;20235;-67
2021/01/15 15:24:06;;;;;;;11.37;10.03;;;;;;;3.37;45.87;102713.31;6129907;28;20260;-67
2021/01/15 15:27:26;;;;;;;6.07;4.00;;;;;;;3.58;46.17;102723.81;6117947;28;20236;-68
2021/01/15 15:30:48;;;;;;;14.60;10.23;;;;;;;3.55;46.28;102729.72;6128766;28;20634;-67
2021/01/15 15:34:09;;;;;;;17.60;13.03;;;;;;;3.52;46.47;102731.25;6120050;28;20929;-68
2021/01/15 15:37:29;;;;;;;7.13;5.27;;;;;;;3.39;45.86;102737.44;6122829;28;20318;-68
2021/01/15 15:40:51;;;;;;;8.63;5.03;;;;;;;3.47;45.91;102735.28;6108537;28;20235;-69
2021/01/15 15:44:12;;;;;;;3.93;3.00;;;;;;;3.43;45.74;102741.06;6113146;28;20248;-68
2021/01/15 15:47:34;;;;;;;16.13;8.83;;;;;;;3.60;45.52;102742.81;6117267;28;20244;-68